sensor_id;sensor_type;location;lat;lon;timestamp;pressure;altitude;pressure_sealevel;temperature;humidity
76603;BME280;65075;48.390;17.598;2023-04-03T00:01:13;99962.03;;;6.67;56.04
76603;BME280;65075;48.390;17.598;2023-04-03T00:03:40;99920.38;;;6.26;57.35
76603;BME280;65075;48.390;17.598;2023-04-03T00:06:06;99963.44;;;6.58;56.72
76603;BME280;65075;48.390;17.598;2023-04-03T00:08:35;99947.94;;;6.23;57.52
76603;BME280;65075;48.390;17.598;2023-04-03T00:11:01;99917.44;;;6.40;56.79
76603;BME280;65075;48.390;17.598;2023-04-03T00:13:27;99957.41;;;6.56;56.32
76603;BME280;65075;48.390;17.598;2023-04-03T00:15:53;99947.00;;;6.29;57.07
76603;BME280;65075;48.390;17.598;2023-04-03T00:18:20;99953.72;;;5.97;57.35
76603;BME280;65075;48.390;17.598;2023-04-03T00:20:47;99961.53;;;6.47;56.83
76603;BME280;65075;48.390;17.598;2023-04-03T00:23:12;99959.16;;;5.97;58.46
76603;BME280;65075;48.390;17.598;2023-04-03T00:25:38;99966.75;;;6.18;57.70
76603;BME280;65075;48.390;17.598;2023-04-03T00:28:04;99957.13;;;6.34;57.21
76603;BME280;65075;48.390;17.598;2023-04-03T00:30:30;99962.53;;;6.22;57.34
76603;BME280;65075;48.390;17.598;2023-04-03T00:32:56;99956.50;;;6.62;56.35
76603;BME280;65075;48.390;17.598;2023-04-03T00:35:23;99952.50;;;6.99;55.83
76603;BME280;65075;48.390;17.598;2023-04-03T00:37:51;99969.34;;;6.89;55.72
76603;BME280;65075;48.390;17.598;2023-04-03T00:40:18;99966.38;;;6.91;55.48
76603;BME280;65075;48.390;17.598;2023-04-03T00:42:47;99985.72;;;6.71;57.28
76603;BME280;65075;48.390;17.598;2023-04-03T00:45:44;99973.09;;;6.65;56.10
76603;BME280;65075;48.390;17.598;2023-04-03T00:48:15;99967.69;;;6.77;56.38
76603;BME280;65075;48.390;17.598;2023-04-03T00:50:44;99966.06;;;6.87;55.76
76603;BME280;65075;48.390;17.598;2023-04-03T00:53:21;99951.44;;;6.12;57.86
76603;BME280;65075;48.390;17.598;2023-04-03T00:55:49;99939.56;;;6.25;56.56
76603;BME280;65075;48.390;17.598;2023-04-03T00:58:20;99907.00;;;5.72;57.65
76603;BME280;65075;48.390;17.598;2023-04-03T01:00:53;99904.41;;;5.95;57.19
76603;BME280;65075;48.390;17.598;2023-04-03T01:03:23;99949.63;;;6.48;56.98
76603;BME280;65075;48.390;17.598;2023-04-03T01:05:49;99974.56;;;6.26;57.53
76603;BME280;65075;48.390;17.598;2023-04-03T01:08:15;99966.16;;;6.69;55.83
76603;BME280;65075;48.390;17.598;2023-04-03T01:10:41;99959.66;;;7.17;55.61
76603;BME280;65075;48.390;17.598;2023-04-03T01:13:27;99963.41;;;6.46;57.17
76603;BME280;65075;48.390;17.598;2023-04-03T01:15:53;99958.59;;;6.83;56.35
76603;BME280;65075;48.390;17.598;2023-04-03T01:18:19;99962.78;;;7.48;55.51
76603;BME280;65075;48.390;17.598;2023-04-03T01:21:19;99934.50;;;6.28;58.28
76603;BME280;65075;48.390;17.598;2023-04-03T01:26:20;99980.31;;;6.83;58.10
76603;BME280;65075;48.390;17.598;2023-04-03T01:28:49;99964.97;;;6.77;58.59
76603;BME280;65075;48.390;17.598;2023-04-03T01:33:53;99943.41;;;6.70;58.21
76603;BME280;65075;48.390;17.598;2023-04-03T01:36:23;99967.56;;;6.95;57.45
76603;BME280;65075;48.390;17.598;2023-04-03T01:38:51;99960.97;;;6.91;58.03
76603;BME280;65075;48.390;17.598;2023-04-03T01:41:17;99931.34;;;5.90;59.92
76603;BME280;65075;48.390;17.598;2023-04-03T01:43:43;99962.19;;;5.89;60.57
76603;BME280;65075;48.390;17.598;2023-04-03T01:46:09;99953.56;;;6.10;60.71
76603;BME280;65075;48.390;17.598;2023-04-03T01:48:35;99955.88;;;6.60;58.98
76603;BME280;65075;48.390;17.598;2023-04-03T01:51:00;99961.44;;;6.65;58.05
76603;BME280;65075;48.390;17.598;2023-04-03T01:53:26;99919.53;;;6.26;58.32
76603;BME280;65075;48.390;17.598;2023-04-03T01:55:52;99964.94;;;6.54;58.45
76603;BME280;65075;48.390;17.598;2023-04-03T01:58:17;99960.75;;;6.81;57.53
76603;BME280;65075;48.390;17.598;2023-04-03T02:00:43;99956.09;;;6.47;57.86
76603;BME280;65075;48.390;17.598;2023-04-03T02:03:08;99926.88;;;6.49;57.67
76603;BME280;65075;48.390;17.598;2023-04-03T02:05:37;99936.53;;;5.92;59.68
76603;BME280;65075;48.390;17.598;2023-04-03T02:08:03;99956.84;;;6.12;58.99
76603;BME280;65075;48.390;17.598;2023-04-03T02:10:28;99957.53;;;5.60;59.82
76603;BME280;65075;48.390;17.598;2023-04-03T02:12:54;99966.69;;;5.95;58.96
76603;BME280;65075;48.390;17.598;2023-04-03T02:15:19;99965.69;;;6.19;57.26
76603;BME280;65075;48.390;17.598;2023-04-03T02:17:45;99968.75;;;6.76;56.04
76603;BME280;65075;48.390;17.598;2023-04-03T02:20:11;99974.50;;;6.45;55.39
76603;BME280;65075;48.390;17.598;2023-04-03T02:22:37;99962.72;;;6.09;56.71
76603;BME280;65075;48.390;17.598;2023-04-03T02:25:03;99958.81;;;6.47;55.14
76603;BME280;65075;48.390;17.598;2023-04-03T02:27:29;99966.50;;;6.61;55.64
76603;BME280;65075;48.390;17.598;2023-04-03T02:29:54;99959.31;;;5.84;57.63
76603;BME280;65075;48.390;17.598;2023-04-03T02:32:20;99967.59;;;5.89;57.74
76603;BME280;65075;48.390;17.598;2023-04-03T02:34:48;99964.03;;;6.07;56.88
76603;BME280;65075;48.390;17.598;2023-04-03T02:37:13;99953.97;;;5.77;58.08
76603;BME280;65075;48.390;17.598;2023-04-03T02:39:39;99949.59;;;5.65;57.50
76603;BME280;65075;48.390;17.598;2023-04-03T02:42:05;99962.34;;;5.76;57.93
76603;BME280;65075;48.390;17.598;2023-04-03T02:44:30;99960.63;;;5.45;58.51
76603;BME280;65075;48.390;17.598;2023-04-03T02:46:56;99968.34;;;5.96;57.70
76603;BME280;65075;48.390;17.598;2023-04-03T02:49:21;99958.94;;;5.81;58.16
76603;BME280;65075;48.390;17.598;2023-04-03T02:51:47;99954.47;;;6.04;57.51
76603;BME280;65075;48.390;17.598;2023-04-03T02:54:13;99960.34;;;5.83;57.63
76603;BME280;65075;48.390;17.598;2023-04-03T02:56:39;99972.22;;;5.34;58.57
76603;BME280;65075;48.390;17.598;2023-04-03T02:59:04;99966.47;;;5.78;57.39
76603;BME280;65075;48.390;17.598;2023-04-03T03:01:30;99970.41;;;5.64;57.01
76603;BME280;65075;48.390;17.598;2023-04-03T03:03:58;99970.47;;;5.58;57.19
76603;BME280;65075;48.390;17.598;2023-04-03T03:06:24;99987.34;;;6.08;56.34
76603;BME280;65075;48.390;17.598;2023-04-03T03:08:50;99982.19;;;5.88;57.01
76603;BME280;65075;48.390;17.598;2023-04-03T03:11:15;99980.38;;;5.82;56.14
76603;BME280;65075;48.390;17.598;2023-04-03T03:13:41;99989.56;;;6.11;56.02
76603;BME280;65075;48.390;17.598;2023-04-03T03:16:07;100001.31;;;5.93;55.41
76603;BME280;65075;48.390;17.598;2023-04-03T03:18:33;99962.28;;;5.46;56.84
76603;BME280;65075;48.390;17.598;2023-04-03T03:21:01;99992.59;;;5.55;56.83
76603;BME280;65075;48.390;17.598;2023-04-03T03:23:29;99983.84;;;6.19;55.10
76603;BME280;65075;48.390;17.598;2023-04-03T03:25:56;99999.03;;;5.72;56.83
76603;BME280;65075;48.390;17.598;2023-04-03T03:28:22;99997.19;;;6.02;55.65
76603;BME280;65075;48.390;17.598;2023-04-03T03:30:48;100001.66;;;5.60;56.43
76603;BME280;65075;48.390;17.598;2023-04-03T03:33:13;100002.84;;;6.30;54.49
76603;BME280;65075;48.390;17.598;2023-04-03T03:35:39;99969.56;;;6.53;53.42
76603;BME280;65075;48.390;17.598;2023-04-03T03:38:05;100020.56;;;6.45;53.76
76603;BME280;65075;48.390;17.598;2023-04-03T03:40:31;100007.44;;;7.06;52.18
76603;BME280;65075;48.390;17.598;2023-04-03T03:42:56;99999.63;;;5.92;55.15
76603;BME280;65075;48.390;17.598;2023-04-03T03:45:22;99996.19;;;6.45;53.08
76603;BME280;65075;48.390;17.598;2023-04-03T03:47:47;99997.81;;;6.46;53.92
76603;BME280;65075;48.390;17.598;2023-04-03T03:50:13;99983.28;;;6.28;53.63
76603;BME280;65075;48.390;17.598;2023-04-03T03:52:38;99993.94;;;6.42;53.17
76603;BME280;65075;48.390;17.598;2023-04-03T03:55:04;99997.84;;;6.57;52.99
76603;BME280;65075;48.390;17.598;2023-04-03T03:57:30;99977.06;;;5.98;54.20
76603;BME280;65075;48.390;17.598;2023-04-03T03:59:56;99978.31;;;6.25;54.58
76603;BME280;65075;48.390;17.598;2023-04-03T04:02:21;99991.16;;;6.18;55.58
76603;BME280;65075;48.390;17.598;2023-04-03T04:04:47;99989.34;;;6.12;55.81
76603;BME280;65075;48.390;17.598;2023-04-03T04:07:12;99980.66;;;6.10;55.87
76603;BME280;65075;48.390;17.598;2023-04-03T04:09:38;99996.97;;;6.04;57.37
76603;BME280;65075;48.390;17.598;2023-04-03T04:12:03;99998.44;;;5.88;58.86
76603;BME280;65075;48.390;17.598;2023-04-03T04:14:29;99984.84;;;5.58;60.51
76603;BME280;65075;48.390;17.598;2023-04-03T04:16:55;99987.91;;;5.98;59.44
76603;BME280;65075;48.390;17.598;2023-04-03T04:19:20;99987.16;;;5.55;59.83
76603;BME280;65075;48.390;17.598;2023-04-03T04:21:46;99988.16;;;6.08;58.31
76603;BME280;65075;48.390;17.598;2023-04-03T04:24:11;99999.19;;;5.95;59.27
76603;BME280;65075;48.390;17.598;2023-04-03T04:26:37;99996.16;;;6.03;58.95
76603;BME280;65075;48.390;17.598;2023-04-03T04:29:02;99996.13;;;5.73;59.58
76603;BME280;65075;48.390;17.598;2023-04-03T04:31:28;99996.03;;;5.62;59.85
76603;BME280;65075;48.390;17.598;2023-04-03T04:33:54;100012.41;;;5.49;60.13
76603;BME280;65075;48.390;17.598;2023-04-03T04:36:19;100006.56;;;5.70;58.69
76603;BME280;65075;48.390;17.598;2023-04-03T04:38:45;100010.91;;;5.71;59.04
76603;BME280;65075;48.390;17.598;2023-04-03T04:41:11;100007.31;;;5.95;58.01
76603;BME280;65075;48.390;17.598;2023-04-03T04:43:37;100011.84;;;5.47;59.80
76603;BME280;65075;48.390;17.598;2023-04-03T04:46:03;100013.03;;;5.87;58.45
76603;BME280;65075;48.390;17.598;2023-04-03T04:48:29;100002.91;;;6.12;58.17
76603;BME280;65075;48.390;17.598;2023-04-03T04:50:55;100004.91;;;5.69;58.63
76603;BME280;65075;48.390;17.598;2023-04-03T04:53:21;100016.16;;;6.02;58.36
76603;BME280;65075;48.390;17.598;2023-04-03T04:55:46;100008.53;;;5.45;59.46
76603;BME280;65075;48.390;17.598;2023-04-03T04:58:12;100022.34;;;5.55;59.39
76603;BME280;65075;48.390;17.598;2023-04-03T05:00:38;100026.41;;;5.82;58.87
76603;BME280;65075;48.390;17.598;2023-04-03T05:03:03;100022.81;;;5.70;58.59
76603;BME280;65075;48.390;17.598;2023-04-03T05:05:29;100007.28;;;5.77;58.43
76603;BME280;65075;48.390;17.598;2023-04-03T05:07:55;100014.22;;;5.55;58.25
76603;BME280;65075;48.390;17.598;2023-04-03T05:10:20;100012.13;;;5.93;57.63
76603;BME280;65075;48.390;17.598;2023-04-03T05:12:46;100016.19;;;5.48;58.52
76603;BME280;65075;48.390;17.598;2023-04-03T05:15:12;100022.09;;;5.20;59.49
76603;BME280;65075;48.390;17.598;2023-04-03T05:17:37;100011.97;;;5.52;58.02
76603;BME280;65075;48.390;17.598;2023-04-03T05:20:04;99982.19;;;5.52;57.66
76603;BME280;65075;48.390;17.598;2023-04-03T05:22:30;99986.72;;;5.22;59.03
76603;BME280;65075;48.390;17.598;2023-04-03T05:24:56;100007.63;;;5.33;58.35
76603;BME280;65075;48.390;17.598;2023-04-03T05:27:22;100011.91;;;5.40;57.63
76603;BME280;65075;48.390;17.598;2023-04-03T05:29:50;100021.50;;;5.18;59.14
76603;BME280;65075;48.390;17.598;2023-04-03T05:32:15;100018.91;;;5.48;58.93
76603;BME280;65075;48.390;17.598;2023-04-03T05:34:41;100020.06;;;5.34;58.51
76603;BME280;65075;48.390;17.598;2023-04-03T05:37:07;100036.03;;;5.60;58.36
76603;BME280;65075;48.390;17.598;2023-04-03T05:39:33;100041.81;;;5.02;59.48
76603;BME280;65075;48.390;17.598;2023-04-03T05:41:59;100043.78;;;5.56;58.34
76603;BME280;65075;48.390;17.598;2023-04-03T05:44:25;100047.16;;;5.52;58.49
76603;BME280;65075;48.390;17.598;2023-04-03T05:46:52;100051.81;;;5.63;58.14
76603;BME280;65075;48.390;17.598;2023-04-03T05:49:18;100053.59;;;5.51;58.09
76603;BME280;65075;48.390;17.598;2023-04-03T05:51:44;100034.75;;;5.62;58.03
76603;BME280;65075;48.390;17.598;2023-04-03T05:54:19;100058.75;;;5.95;57.15
76603;BME280;65075;48.390;17.598;2023-04-03T05:56:48;100065.22;;;6.95;53.99
76603;BME280;65075;48.390;17.598;2023-04-03T05:59:14;100061.75;;;6.35;55.63
76603;BME280;65075;48.390;17.598;2023-04-03T06:01:39;100057.69;;;7.20;53.58
76603;BME280;65075;48.390;17.598;2023-04-03T06:04:05;100074.81;;;7.21;53.15
76603;BME280;65075;48.390;17.598;2023-04-03T06:09:19;100054.00;;;6.39;55.34
76603;BME280;65075;48.390;17.598;2023-04-03T06:11:45;100051.97;;;6.04;55.58
76603;BME280;65075;48.390;17.598;2023-04-03T06:14:11;100052.97;;;5.92;55.46
76603;BME280;65075;48.390;17.598;2023-04-03T06:16:37;100075.19;;;7.36;52.09
76603;BME280;65075;48.390;17.598;2023-04-03T06:19:07;100070.06;;;7.74;49.64
76603;BME280;65075;48.390;17.598;2023-04-03T06:21:33;100030.31;;;6.87;50.55
76603;BME280;65075;48.390;17.598;2023-04-03T06:23:59;100072.75;;;7.86;49.58
76603;BME280;65075;48.390;17.598;2023-04-03T06:26:27;100061.69;;;8.55;47.85
76603;BME280;65075;48.390;17.598;2023-04-03T06:28:53;100075.91;;;9.24;45.23
76603;BME280;65075;48.390;17.598;2023-04-03T06:31:19;100086.69;;;9.91;44.19
76603;BME280;65075;48.390;17.598;2023-04-03T06:33:45;100066.63;;;8.58;46.49
76603;BME280;65075;48.390;17.598;2023-04-03T06:36:11;100064.03;;;8.24;47.69
76603;BME280;65075;48.390;17.598;2023-04-03T06:38:37;100080.81;;;8.77;46.71
76603;BME280;65075;48.390;17.598;2023-04-03T06:41:05;100071.09;;;9.64;43.95
76603;BME280;65075;48.390;17.598;2023-04-03T06:43:30;100053.63;;;8.94;44.72
76603;BME280;65075;48.390;17.598;2023-04-03T06:45:56;100083.47;;;9.55;42.70
76603;BME280;65075;48.390;17.598;2023-04-03T06:48:22;100062.69;;;9.49;41.12
76603;BME280;65075;48.390;17.598;2023-04-03T06:50:48;100079.69;;;9.40;41.52
76603;BME280;65075;48.390;17.598;2023-04-03T06:53:14;100051.28;;;9.52;41.23
76603;BME280;65075;48.390;17.598;2023-04-03T06:55:40;100073.72;;;10.19;40.08
76603;BME280;65075;48.390;17.598;2023-04-03T06:58:06;100088.28;;;10.08;39.31
76603;BME280;65075;48.390;17.598;2023-04-03T07:00:32;100086.84;;;10.44;39.21
76603;BME280;65075;48.390;17.598;2023-04-03T07:02:58;100088.22;;;9.82;39.78
76603;BME280;65075;48.390;17.598;2023-04-03T07:05:24;100090.34;;;10.66;37.61
76603;BME280;65075;48.390;17.598;2023-04-03T07:07:50;100096.31;;;10.63;38.29
76603;BME280;65075;48.390;17.598;2023-04-03T07:10:16;100084.84;;;10.13;38.54
76603;BME280;65075;48.390;17.598;2023-04-03T07:12:42;100085.72;;;10.02;38.18
76603;BME280;65075;48.390;17.598;2023-04-03T07:15:08;100099.72;;;10.75;37.52
76603;BME280;65075;48.390;17.598;2023-04-03T07:17:34;100108.22;;;11.74;36.41
76603;BME280;65075;48.390;17.598;2023-04-03T07:20:01;100118.31;;;11.74;37.21
76603;BME280;65075;48.390;17.598;2023-04-03T07:22:26;100125.69;;;11.73;37.54
76603;BME280;65075;48.390;17.598;2023-04-03T07:24:52;100106.13;;;9.77;38.99
76603;BME280;65075;48.390;17.598;2023-04-03T07:27:17;100139.28;;;11.63;37.55
76603;BME280;65075;48.390;17.598;2023-04-03T07:29:43;100104.03;;;10.71;36.59
76603;BME280;65075;48.390;17.598;2023-04-03T07:32:09;100130.47;;;10.66;37.63
76603;BME280;65075;48.390;17.598;2023-04-03T07:34:36;100159.88;;;9.65;37.23
76603;BME280;65075;48.390;17.598;2023-04-03T07:37:02;100144.38;;;11.18;35.34
76603;BME280;65075;48.390;17.598;2023-04-03T07:39:28;100143.44;;;11.39;35.01
76603;BME280;65075;48.390;17.598;2023-04-03T07:41:54;100158.72;;;11.67;34.18
76603;BME280;65075;48.390;17.598;2023-04-03T07:44:24;100144.53;;;12.07;33.09
76603;BME280;65075;48.390;17.598;2023-04-03T07:46:50;100134.22;;;10.86;34.13
76603;BME280;65075;48.390;17.598;2023-04-03T07:49:16;100136.28;;;11.01;33.39
76603;BME280;65075;48.390;17.598;2023-04-03T07:51:44;100138.91;;;11.81;32.45
76603;BME280;65075;48.390;17.598;2023-04-03T07:54:10;100155.00;;;11.46;32.95
76603;BME280;65075;48.390;17.598;2023-04-03T07:56:36;100147.63;;;11.78;31.92
76603;BME280;65075;48.390;17.598;2023-04-03T07:59:07;100157.88;;;12.03;31.72
76603;BME280;65075;48.390;17.598;2023-04-03T08:01:33;100127.19;;;11.96;32.00
76603;BME280;65075;48.390;17.598;2023-04-03T08:03:59;100163.53;;;10.48;33.50
76603;BME280;65075;48.390;17.598;2023-04-03T08:06:25;100170.28;;;12.16;32.62
76603;BME280;65075;48.390;17.598;2023-04-03T08:08:50;100175.91;;;12.46;32.98
76603;BME280;65075;48.390;17.598;2023-04-03T08:11:17;100154.56;;;12.53;31.90
76603;BME280;65075;48.390;17.598;2023-04-03T08:13:44;100166.09;;;11.08;33.71
76603;BME280;65075;48.390;17.598;2023-04-03T08:16:13;100164.31;;;11.18;33.45
76603;BME280;65075;48.390;17.598;2023-04-03T08:18:39;100166.78;;;10.93;34.18
76603;BME280;65075;48.390;17.598;2023-04-03T08:21:06;100185.34;;;10.69;35.00
76603;BME280;65075;48.390;17.598;2023-04-03T08:23:32;100185.34;;;12.85;31.36
76603;BME280;65075;48.390;17.598;2023-04-03T08:25:58;100189.03;;;12.44;32.00
76603;BME280;65075;48.390;17.598;2023-04-03T08:28:23;100174.38;;;11.76;32.60
76603;BME280;65075;48.390;17.598;2023-04-03T08:30:49;100182.31;;;12.15;32.24
76603;BME280;65075;48.390;17.598;2023-04-03T08:33:14;100174.81;;;12.47;32.01
76603;BME280;65075;48.390;17.598;2023-04-03T08:35:41;100182.03;;;12.73;30.70
76603;BME280;65075;48.390;17.598;2023-04-03T08:38:08;100188.56;;;12.67;30.53
76603;BME280;65075;48.390;17.598;2023-04-03T08:40:34;100193.22;;;12.10;30.12
76603;BME280;65075;48.390;17.598;2023-04-03T08:45:44;100171.53;;;11.61;30.42
76603;BME280;65075;48.390;17.598;2023-04-03T08:48:15;100166.94;;;12.60;28.68
76603;BME280;65075;48.390;17.598;2023-04-03T08:50:51;100170.00;;;12.79;28.65
76603;BME280;65075;48.390;17.598;2023-04-03T08:53:26;100169.75;;;12.86;29.15
76603;BME280;65075;48.390;17.598;2023-04-03T08:55:55;100162.63;;;11.12;31.90
76603;BME280;65075;48.390;17.598;2023-04-03T08:58:25;100174.22;;;14.03;28.63
76603;BME280;65075;48.390;17.598;2023-04-03T09:01:05;100120.56;;;12.39;29.46
76603;BME280;65075;48.390;17.598;2023-04-03T09:03:41;100175.34;;;11.97;31.28
76603;BME280;65075;48.390;17.598;2023-04-03T09:11:58;100171.00;;;10.57;32.36
76603;BME280;65075;48.390;17.598;2023-04-03T09:14:33;100177.91;;;10.05;33.52
76603;BME280;65075;48.390;17.598;2023-04-03T09:17:19;100174.50;;;11.28;31.61
76603;BME280;65075;48.390;17.598;2023-04-03T09:19:57;100175.78;;;10.45;32.36
76603;BME280;65075;48.390;17.598;2023-04-03T09:22:25;100170.56;;;11.45;31.54
76603;BME280;65075;48.390;17.598;2023-04-03T09:25:17;100165.53;;;11.32;31.07
76603;BME280;65075;48.390;17.598;2023-04-03T09:27:44;100189.06;;;10.20;33.24
76603;BME280;65075;48.390;17.598;2023-04-03T09:30:20;100196.13;;;12.45;30.20
76603;BME280;65075;48.390;17.598;2023-04-03T09:32:52;100181.13;;;13.30;28.75
76603;BME280;65075;48.390;17.598;2023-04-03T09:35:27;100191.56;;;12.09;30.43
76603;BME280;65075;48.390;17.598;2023-04-03T09:37:59;100154.13;;;11.40;31.27
76603;BME280;65075;48.390;17.598;2023-04-03T09:43:00;100161.56;;;12.24;29.68
76603;BME280;65075;48.390;17.598;2023-04-03T09:45:33;100177.69;;;12.87;29.01
76603;BME280;65075;48.390;17.598;2023-04-03T09:50:56;100202.88;;;11.85;31.59
76603;BME280;65075;48.390;17.598;2023-04-03T09:53:36;100196.13;;;12.45;30.65
76603;BME280;65075;48.390;17.598;2023-04-03T09:58:46;100170.56;;;10.22;32.63
76603;BME280;65075;48.390;17.598;2023-04-03T10:01:30;100185.56;;;11.43;32.02
76603;BME280;65075;48.390;17.598;2023-04-03T10:04:18;100177.56;;;12.00;30.86
76603;BME280;65075;48.390;17.598;2023-04-03T10:06:47;100181.53;;;10.92;32.14
76603;BME280;65075;48.390;17.598;2023-04-03T10:09:26;100187.56;;;11.53;31.07
76603;BME280;65075;48.390;17.598;2023-04-03T10:12:12;100184.63;;;12.38;30.62
76603;BME280;65075;48.390;17.598;2023-04-03T10:14:56;100196.47;;;13.46;30.02
76603;BME280;65075;48.390;17.598;2023-04-03T10:17:57;100192.19;;;12.83;29.30
76603;BME280;65075;48.390;17.598;2023-04-03T10:20:43;100196.16;;;12.50;30.25
76603;BME280;65075;48.390;17.598;2023-04-03T10:31:41;100200.72;;;11.87;31.06
76603;BME280;65075;48.390;17.598;2023-04-03T10:34:24;100194.81;;;12.00;30.28
76603;BME280;65075;48.390;17.598;2023-04-03T10:42:18;100179.94;;;11.55;31.70
76603;BME280;65075;48.390;17.598;2023-04-03T10:44:55;100177.91;;;12.14;30.65
76603;BME280;65075;48.390;17.598;2023-04-03T10:47:41;100189.78;;;10.54;32.63
76603;BME280;65075;48.390;17.598;2023-04-03T10:50:27;100185.59;;;10.68;33.12
76603;BME280;65075;48.390;17.598;2023-04-03T10:58:27;100175.63;;;11.05;31.57
76603;BME280;65075;48.390;17.598;2023-04-03T11:01:02;100193.53;;;10.69;32.66
76603;BME280;65075;48.390;17.598;2023-04-03T11:03:42;100199.31;;;11.21;32.24
76603;BME280;65075;48.390;17.598;2023-04-03T11:06:11;100183.19;;;10.28;33.55
76603;BME280;65075;48.390;17.598;2023-04-03T11:08:46;100190.59;;;9.77;34.38
76603;BME280;65075;48.390;17.598;2023-04-03T11:11:19;100190.53;;;9.72;34.05
76603;BME280;65075;48.390;17.598;2023-04-03T11:14:20;100192.59;;;9.32;34.51
76603;BME280;65075;48.390;17.598;2023-04-03T11:16:47;100180.75;;;10.97;31.00
76603;BME280;65075;48.390;17.598;2023-04-03T11:22:29;100186.50;;;10.30;32.83
76603;BME280;65075;48.390;17.598;2023-04-03T11:27:43;100196.22;;;9.71;33.82
76603;BME280;65075;48.390;17.598;2023-04-03T11:30:39;100197.59;;;8.79;34.59
76603;BME280;65075;48.390;17.598;2023-04-03T11:35:51;100194.88;;;10.07;32.52
76603;BME280;65075;48.390;17.598;2023-04-03T11:38:27;100197.88;;;9.55;33.07
76603;BME280;65075;48.390;17.598;2023-04-03T11:40:57;100184.69;;;9.64;31.87
76603;BME280;65075;48.390;17.598;2023-04-03T11:43:27;100163.88;;;9.25;31.77
76603;BME280;65075;48.390;17.598;2023-04-03T11:45:58;100132.34;;;9.12;32.35
76603;BME280;65075;48.390;17.598;2023-04-03T11:50:59;100180.63;;;9.66;33.04
76603;BME280;65075;48.390;17.598;2023-04-03T11:53:29;100179.03;;;9.37;34.45
76603;BME280;65075;48.390;17.598;2023-04-03T11:55:57;100189.06;;;8.35;36.74
76603;BME280;65075;48.390;17.598;2023-04-03T11:58:34;100174.59;;;8.58;36.02
76603;BME280;65075;48.390;17.598;2023-04-03T12:04:11;100170.78;;;8.59;35.46
76603;BME280;65075;48.390;17.598;2023-04-03T12:09:26;100154.28;;;9.22;34.05
76603;BME280;65075;48.390;17.598;2023-04-03T12:11:55;100157.09;;;9.27;33.49
76603;BME280;65075;48.390;17.598;2023-04-03T12:14:25;100155.50;;;8.70;34.20
76603;BME280;65075;48.390;17.598;2023-04-03T12:16:54;100157.66;;;9.29;32.39
76603;BME280;65075;48.390;17.598;2023-04-03T12:19:39;100138.44;;;9.19;32.54
76603;BME280;65075;48.390;17.598;2023-04-03T12:22:13;100139.34;;;9.96;31.88
76603;BME280;65075;48.390;17.598;2023-04-03T12:24:45;100148.81;;;9.89;32.83
76603;BME280;65075;48.390;17.598;2023-04-03T12:27:23;100143.31;;;9.34;32.32
76603;BME280;65075;48.390;17.598;2023-04-03T12:35:14;100137.91;;;8.32;34.29
76603;BME280;65075;48.390;17.598;2023-04-03T12:40:53;100158.69;;;8.27;33.48
76603;BME280;65075;48.390;17.598;2023-04-03T12:46:03;100135.34;;;9.99;30.52
76603;BME280;65075;48.390;17.598;2023-04-03T12:48:32;100107.13;;;8.72;31.52
76603;BME280;65075;48.390;17.598;2023-04-03T12:51:00;100130.84;;;9.21;31.45
76603;BME280;65075;48.390;17.598;2023-04-03T12:53:31;100135.47;;;9.20;32.01
76603;BME280;65075;48.390;17.598;2023-04-03T12:58:51;100084.38;;;9.83;31.86
76603;BME280;65075;48.390;17.598;2023-04-03T13:01:25;100137.94;;;9.05;31.99
76603;BME280;65075;48.390;17.598;2023-04-03T13:03:56;100136.78;;;9.51;31.52
76603;BME280;65075;48.390;17.598;2023-04-03T13:06:28;100142.44;;;8.83;32.64
76603;BME280;65075;48.390;17.598;2023-04-03T13:08:58;100128.38;;;8.75;32.86
76603;BME280;65075;48.390;17.598;2023-04-03T13:11:41;100122.78;;;9.26;31.70
76603;BME280;65075;48.390;17.598;2023-04-03T13:14:20;100131.84;;;9.48;30.96
76603;BME280;65075;48.390;17.598;2023-04-03T13:17:13;100130.53;;;9.34;31.64
76603;BME280;65075;48.390;17.598;2023-04-03T13:19:40;100118.78;;;9.50;30.08
76603;BME280;65075;48.390;17.598;2023-04-03T13:24:51;100135.09;;;8.84;31.86
76603;BME280;65075;48.390;17.598;2023-04-03T13:27:17;100118.44;;;8.97;31.50
76603;BME280;65075;48.390;17.598;2023-04-03T13:29:50;100116.31;;;8.99;30.83
76603;BME280;65075;48.390;17.598;2023-04-03T13:32:21;100112.03;;;9.53;30.89
76603;BME280;65075;48.390;17.598;2023-04-03T13:34:49;100113.53;;;9.82;30.42
76603;BME280;65075;48.390;17.598;2023-04-03T13:40:02;100107.19;;;9.38;31.32
76603;BME280;65075;48.390;17.598;2023-04-03T13:42:38;100097.53;;;9.47;30.55
76603;BME280;65075;48.390;17.598;2023-04-03T13:47:47;100083.16;;;9.35;30.05
76603;BME280;65075;48.390;17.598;2023-04-03T13:50:24;100098.78;;;10.00;30.27
76603;BME280;65075;48.390;17.598;2023-04-03T13:53:01;100060.47;;;9.46;30.99
76603;BME280;65075;48.390;17.598;2023-04-03T13:55:30;100105.09;;;8.79;30.07
76603;BME280;65075;48.390;17.598;2023-04-03T14:00:38;100097.09;;;8.89;31.34
76603;BME280;65075;48.390;17.598;2023-04-03T14:05:47;100070.41;;;8.29;31.78
76603;BME280;65075;48.390;17.598;2023-04-03T14:08:15;100078.97;;;8.49;31.40
76603;BME280;65075;48.390;17.598;2023-04-03T14:10:42;100073.84;;;8.98;29.58
76603;BME280;65075;48.390;17.598;2023-04-03T14:13:14;100052.97;;;9.20;29.67
76603;BME280;65075;48.390;17.598;2023-04-03T14:15:40;100077.38;;;8.82;29.89
76603;BME280;65075;48.390;17.598;2023-04-03T14:18:11;100075.66;;;9.26;30.11
76603;BME280;65075;48.390;17.598;2023-04-03T14:20:38;100055.44;;;8.72;30.54
76603;BME280;65075;48.390;17.598;2023-04-03T14:23:04;100087.59;;;8.91;30.20
76603;BME280;65075;48.390;17.598;2023-04-03T14:25:29;100089.72;;;8.73;29.85
76603;BME280;65075;48.390;17.598;2023-04-03T14:27:55;100077.41;;;9.15;30.45